createdAt,value
2024-05-09T00:01:33.379Z,94.90
2024-05-09T00:04:03.948Z,95.60
2024-05-09T00:16:40.472Z,97.30
2024-05-09T00:19:11.140Z,99.00
2024-05-09T00:21:45.058Z,98.30
2024-05-09T00:29:18.667Z,99.90
2024-05-09T00:31:51.843Z,99.90
2024-05-09T00:39:24.550Z,99.90
2024-05-09T00:46:59.497Z,99.90
2024-05-09T00:52:02.626Z,99.90
2024-05-09T00:54:33.955Z,99.90
2024-05-09T00:57:06.040Z,99.90
2024-05-09T00:59:37.109Z,99.90
2024-05-09T01:02:15.366Z,99.90
2024-05-09T01:04:46.054Z,99.90
2024-05-09T01:09:47.879Z,99.90
2024-05-09T01:14:49.616Z,99.90
2024-05-09T01:17:23.258Z,99.90
2024-05-09T01:19:54.307Z,99.90
2024-05-09T01:22:27.683Z,99.90
2024-05-09T01:25:00.941Z,99.90
2024-05-09T01:27:31.880Z,99.90
2024-05-09T01:30:04.081Z,99.90
2024-05-09T01:32:37.858Z,99.90
2024-05-09T01:35:10.202Z,99.90
2024-05-09T01:37:40.488Z,99.90
2024-05-09T01:40:18.584Z,99.90
2024-05-09T01:42:52.858Z,99.90
2024-05-09T01:45:23.168Z,99.90
2024-05-09T01:47:54.341Z,99.90
2024-05-09T01:50:36.198Z,99.90
2024-05-09T01:53:10.878Z,99.90
2024-05-09T01:55:47.713Z,99.90
2024-05-09T01:58:18.949Z,99.90
2024-05-09T02:05:52.617Z,99.90
2024-05-09T02:08:24.641Z,99.90
2024-05-09T02:10:58.213Z,99.90
2024-05-09T02:21:01.500Z,99.90
2024-05-09T02:26:05.889Z,99.90
2024-05-09T02:36:10.602Z,99.90
2024-05-09T02:41:12.758Z,99.90
2024-05-09T02:56:13.679Z,99.90
2024-05-09T03:03:45.491Z,99.90
2024-05-09T03:08:45.567Z,99.90
2024-05-09T03:11:27.046Z,99.90
2024-05-09T03:18:55.253Z,99.90
2024-05-09T03:23:53.824Z,99.90
2024-05-09T03:26:27.291Z,99.90
2024-05-09T03:33:54.603Z,99.90
2024-05-09T03:41:29.489Z,99.90
2024-05-09T03:48:56.658Z,99.90
2024-05-09T03:51:27.331Z,99.90
2024-05-09T03:53:55.851Z,99.90
2024-05-09T03:56:29.456Z,99.90
2024-05-09T04:03:58.279Z,99.90
2024-05-09T04:06:29.661Z,99.90
2024-05-09T04:08:57.309Z,99.90
2024-05-09T04:11:30.474Z,99.90
2024-05-09T04:13:58.347Z,99.90
2024-05-09T04:16:28.779Z,99.90
2024-05-09T04:18:56.825Z,99.90
2024-05-09T04:23:57.025Z,99.90
2024-05-09T04:26:30.410Z,99.90
2024-05-09T04:28:58.423Z,99.90
2024-05-09T04:31:29.578Z,99.90
2024-05-09T04:33:57.605Z,99.90
2024-05-09T04:43:57.860Z,99.90
2024-05-09T04:48:59.732Z,99.90
2024-05-09T04:51:41.540Z,99.90
2024-05-09T04:59:24.708Z,99.90
2024-05-09T05:04:23.831Z,99.90
2024-05-09T05:09:28.871Z,99.90
2024-05-09T05:14:30.791Z,99.90
2024-05-09T05:24:28.569Z,99.90
2024-05-09T05:32:01.132Z,99.90
2024-05-09T05:34:29.242Z,99.90
2024-05-09T05:37:00.755Z,99.90
2024-05-09T05:41:59.553Z,99.90
2024-05-09T05:47:03.488Z,99.90
2024-05-09T05:57:20.382Z,99.90
2024-05-09T06:02:22.235Z,99.90
2024-05-09T06:09:52.418Z,99.90
2024-05-09T06:17:53.116Z,99.90
2024-05-09T06:23:05.048Z,99.90
2024-05-09T06:33:49.042Z,99.90
2024-05-09T06:41:24.328Z,98.20
2024-05-09T06:46:46.704Z,98.20
2024-05-09T06:49:17.863Z,94.80
2024-05-09T06:54:18.671Z,93.90
2024-05-09T07:04:29.787Z,93.40
2024-05-09T07:12:13.695Z,91.80
2024-05-09T07:17:15.529Z,89.90
2024-05-09T07:19:46.346Z,88.70
2024-05-09T07:24:53.119Z,89.20
2024-05-09T07:34:59.566Z,88.40
2024-05-09T07:42:39.325Z,82.60
2024-05-09T07:45:43.030Z,85.30
2024-05-09T07:53:00.828Z,79.90
2024-05-09T07:54:17.402Z,84.80
2024-05-09T07:56:56.482Z,80.00
2024-05-09T07:59:27.212Z,84.50
2024-05-09T08:01:58.048Z,81.60
2024-05-09T08:05:32.576Z,82.40
2024-05-09T08:08:36.375Z,79.30
2024-05-09T08:11:55.208Z,77.50
2024-05-09T08:14:36.250Z,71.40
2024-05-09T08:17:13.655Z,69.50
2024-05-09T08:19:46.513Z,68.80
2024-05-09T08:22:32.364Z,68.80
2024-05-09T08:25:14.663Z,71.30
2024-05-09T08:27:52.948Z,68.00
2024-05-09T08:30:36.835Z,67.00
2024-05-09T08:33:11.529Z,61.50
2024-05-09T08:35:39.536Z,63.20
2024-05-09T08:38:21.247Z,68.60
2024-05-09T08:41:05.350Z,64.30
2024-05-09T08:43:46.633Z,65.70
2024-05-09T08:46:31.916Z,64.90
2024-05-09T08:49:15.655Z,61.10
2024-05-09T08:51:44.147Z,63.30
2024-05-09T08:54:14.950Z,62.80
2024-05-09T08:56:54.845Z,63.60
2024-05-09T08:59:39.556Z,60.50
2024-05-09T09:02:32.741Z,55.70
2024-05-09T09:05:08.152Z,54.40
2024-05-09T09:07:43.209Z,54.30
2024-05-09T09:10:24.910Z,60.60
2024-05-09T09:13:12.809Z,55.80
2024-05-09T09:15:52.435Z,55.10
2024-05-09T09:18:43.681Z,53.00
2024-05-09T09:21:16.419Z,54.00
2024-05-09T09:23:47.377Z,54.10
2024-05-09T09:26:28.998Z,48.60
2024-05-09T09:32:23.117Z,48.90
2024-05-09T09:34:55.098Z,48.60
2024-05-09T09:37:33.437Z,49.90
2024-05-09T09:40:04.743Z,44.20
2024-05-09T09:42:49.041Z,47.00
2024-05-09T09:45:37.958Z,43.70
2024-05-09T09:48:37.469Z,44.30
2024-05-09T09:51:47.150Z,45.80
2024-05-09T09:54:36.253Z,44.60
2024-05-09T09:57:23.569Z,45.00
2024-05-09T10:00:33.453Z,41.20
2024-05-09T10:03:24.271Z,46.10
2024-05-09T10:06:19.984Z,46.10
2024-05-09T10:09:26.733Z,46.30
2024-05-09T10:12:22.301Z,47.60
2024-05-09T10:15:22.944Z,41.60
2024-05-09T10:18:44.728Z,43.30
2024-05-09T10:21:20.564Z,39.30
2024-05-09T10:24:24.480Z,42.60
2024-05-09T10:27:39.256Z,37.10
2024-05-09T10:33:37.703Z,37.40
2024-05-09T10:37:31.828Z,40.30
2024-05-09T10:42:29.017Z,41.00
2024-05-09T10:52:09.813Z,46.50
2024-05-09T10:55:05.674Z,44.50
2024-05-09T10:58:16.888Z,41.90
2024-05-09T11:01:07.376Z,44.20
2024-05-09T11:04:03.301Z,42.10
2024-05-09T11:06:47.454Z,44.10
2024-05-09T11:09:47.520Z,43.40
2024-05-09T11:12:24.359Z,43.30
2024-05-09T11:15:10.236Z,44.40
2024-05-09T11:18:07.566Z,41.40
2024-05-09T11:20:46.903Z,40.00
2024-05-09T11:23:34.196Z,37.30
2024-05-09T11:26:45.619Z,36.30
2024-05-09T11:29:53.762Z,42.90
2024-05-09T11:33:04.510Z,33.90
2024-05-09T11:36:36.262Z,42.60
2024-05-09T11:43:39.989Z,42.20
2024-05-09T11:46:57.842Z,43.60
2024-05-09T11:49:56.794Z,39.00
2024-05-09T11:52:49.394Z,39.50
2024-05-09T12:00:07.349Z,37.10
2024-05-09T12:01:48.788Z,37.70
2024-05-09T12:02:59.791Z,41.30
2024-05-09T12:06:06.963Z,45.20
2024-05-09T12:08:42.879Z,46.40
2024-05-09T12:11:30.016Z,42.20
2024-05-09T12:14:02.691Z,38.90
2024-05-09T12:16:56.257Z,40.10
2024-05-09T12:19:27.126Z,43.80
2024-05-09T12:21:59.122Z,48.40
2024-05-09T12:24:32.424Z,48.40
2024-05-09T12:27:06.280Z,51.70
2024-05-09T12:29:38.935Z,49.50
2024-05-09T12:32:20.189Z,48.20
2024-05-09T12:34:56.084Z,47.50
2024-05-09T12:37:40.339Z,45.00
2024-05-09T12:40:23.078Z,47.40
2024-05-09T12:43:19.338Z,42.00
2024-05-09T12:45:53.660Z,42.70
2024-05-09T12:48:31.271Z,44.50
2024-05-09T12:51:33.220Z,47.70
2024-05-09T12:54:35.408Z,46.80
2024-05-09T12:57:22.476Z,48.10
2024-05-09T13:00:20.720Z,50.50
2024-05-09T13:03:29.566Z,52.80
2024-05-09T13:06:52.488Z,49.60
2024-05-09T13:17:05.385Z,42.60
2024-05-09T13:20:23.003Z,43.90
2024-05-09T13:23:43.970Z,40.40
2024-05-09T13:30:43.262Z,40.20
2024-05-09T13:44:55.218Z,41.00
2024-05-09T13:47:25.897Z,44.60
2024-05-09T13:49:56.550Z,41.30
2024-05-09T13:52:24.742Z,42.70
2024-05-09T13:54:55.239Z,38.60
2024-05-09T13:57:23.015Z,42.90
2024-05-09T13:59:53.516Z,44.90
2024-05-09T14:02:21.493Z,42.30
2024-05-09T14:04:54.605Z,40.90
2024-05-09T14:07:25.329Z,42.30
2024-05-09T14:09:53.516Z,45.80
2024-05-09T14:12:23.796Z,42.10
2024-05-09T14:14:51.532Z,44.80
2024-05-09T14:17:24.840Z,43.50
2024-05-09T14:19:55.291Z,44.00
2024-05-09T14:22:25.803Z,43.50
2024-05-09T14:24:53.564Z,44.50
2024-05-09T14:27:24.327Z,45.80
2024-05-09T14:29:52.101Z,43.70
2024-05-09T14:32:22.741Z,43.80
2024-05-09T14:34:50.600Z,43.90
2024-05-09T14:37:23.623Z,44.40
2024-05-09T14:39:51.296Z,45.40
2024-05-09T14:44:51.543Z,46.80
2024-05-09T14:47:21.582Z,45.10
2024-05-09T14:49:52.149Z,44.10
2024-05-09T14:52:22.696Z,45.70
2024-05-09T14:55:00.015Z,47.40
2024-05-09T14:57:28.804Z,44.40
2024-05-09T14:59:59.152Z,43.70
2024-05-09T15:02:27.107Z,44.70
2024-05-09T15:04:57.489Z,46.70
2024-05-09T15:07:28.061Z,46.80
2024-05-09T15:09:59.160Z,46.50
2024-05-09T15:12:26.918Z,49.30
2024-05-09T15:14:57.209Z,48.70
2024-05-09T15:17:25.084Z,49.40
2024-05-09T15:19:55.572Z,48.00
2024-05-09T15:22:23.422Z,47.80
2024-05-09T15:24:56.464Z,45.70
2024-05-09T15:27:24.179Z,44.40
2024-05-09T15:29:54.768Z,44.80
2024-05-09T15:32:29.717Z,46.50
2024-05-09T15:35:00.317Z,46.50
2024-05-09T15:37:28.062Z,47.80
2024-05-09T15:40:01.808Z,46.50
2024-05-09T15:42:29.724Z,46.40
2024-05-09T15:45:01.041Z,46.50
2024-05-09T15:47:28.899Z,47.50
2024-05-09T15:50:01.655Z,47.50
2024-05-09T15:52:29.524Z,47.60
2024-05-09T15:55:02.740Z,46.40
2024-05-09T15:57:30.805Z,46.30
2024-05-09T16:00:01.275Z,50.30
2024-05-09T16:02:30.108Z,50.50
2024-05-09T16:05:01.092Z,52.80
2024-05-09T16:07:30.914Z,51.20
2024-05-09T16:10:06.724Z,52.50
2024-05-09T16:12:34.918Z,51.80
2024-05-09T16:15:05.460Z,49.50
2024-05-09T16:17:33.413Z,51.70
2024-05-09T16:20:08.931Z,51.40
2024-05-09T16:22:39.950Z,53.40
2024-05-09T16:25:13.120Z,52.80
2024-05-09T16:27:41.432Z,54.10
2024-05-09T16:30:20.840Z,52.60
2024-05-09T16:32:53.560Z,52.40
2024-05-09T16:35:23.902Z,53.80
2024-05-09T16:37:51.953Z,52.40
2024-05-09T16:40:36.288Z,52.50
2024-05-09T16:43:11.310Z,51.70
2024-05-09T16:45:41.139Z,52.20
2024-05-09T16:48:13.360Z,53.80
2024-05-09T16:50:41.202Z,52.40
2024-05-09T16:53:11.505Z,53.60
2024-05-09T16:55:41.930Z,55.80
2024-05-09T16:58:12.833Z,53.70
2024-05-09T17:00:43.342Z,54.50
2024-05-09T17:03:16.634Z,53.90
2024-05-09T17:05:47.246Z,54.20
2024-05-09T17:08:20.127Z,53.60
2024-05-09T17:10:51.285Z,53.20
2024-05-09T17:13:22.925Z,56.10
2024-05-09T17:15:53.967Z,56.00
2024-05-09T17:18:24.828Z,58.00
2024-05-09T17:20:55.354Z,58.70
2024-05-09T17:23:23.135Z,60.00
2024-05-09T17:25:57.096Z,59.20
2024-05-09T17:28:25.067Z,61.60
2024-05-09T17:30:55.443Z,59.70
2024-05-09T17:33:24.928Z,60.00
2024-05-09T17:35:55.643Z,63.10
2024-05-09T17:38:23.990Z,63.20
2024-05-09T17:40:57.465Z,63.10
2024-05-09T17:43:25.621Z,63.40
2024-05-09T17:45:56.115Z,65.00
2024-05-09T17:48:23.921Z,65.00
2024-05-09T17:50:55.984Z,64.30
2024-05-09T17:53:23.644Z,65.60
2024-05-09T17:55:56.688Z,66.90
2024-05-09T17:58:27.646Z,66.40
2024-05-09T18:00:58.266Z,64.00
2024-05-09T18:03:26.417Z,67.20
2024-05-09T18:05:57.034Z,68.70
2024-05-09T18:08:25.160Z,68.40
2024-05-09T18:10:58.548Z,68.10
2024-05-09T18:13:27.186Z,67.80
2024-05-09T18:15:57.859Z,67.50
2024-05-09T18:18:30.278Z,72.90
2024-05-09T18:21:00.941Z,72.90
2024-05-09T18:23:28.713Z,70.70
2024-05-09T18:26:02.421Z,69.40
2024-05-09T18:28:30.564Z,72.20
2024-05-09T18:31:00.856Z,71.30
2024-05-09T18:33:28.727Z,72.30
2024-05-09T18:35:59.414Z,71.10
2024-05-09T18:38:27.366Z,72.90
2024-05-09T18:41:00.624Z,73.30
2024-05-09T18:43:37.997Z,73.80
2024-05-09T18:46:15.557Z,72.80
2024-05-09T18:48:43.773Z,72.30
2024-05-09T18:51:14.773Z,72.50
2024-05-09T18:53:44.655Z,73.20
2024-05-09T18:56:18.562Z,72.80
2024-05-09T18:58:47.138Z,74.00
2024-05-09T19:01:17.458Z,76.60
2024-05-09T19:03:45.462Z,76.00
2024-05-09T19:06:16.129Z,76.30
2024-05-09T19:08:43.830Z,78.30
2024-05-09T19:11:17.364Z,78.00
2024-05-09T19:13:45.271Z,79.30
2024-05-09T19:16:15.969Z,80.70
2024-05-09T19:18:54.935Z,80.30
2024-05-09T19:21:24.200Z,80.70
2024-05-09T19:23:59.010Z,81.20
2024-05-09T19:26:30.173Z,80.70
2024-05-09T19:29:00.760Z,81.50
2024-05-09T19:31:31.429Z,82.40
2024-05-09T19:34:02.284Z,84.90
2024-05-09T19:36:30.376Z,84.70
2024-05-09T19:39:01.351Z,85.60
2024-05-09T19:41:32.043Z,85.20
2024-05-09T19:44:02.586Z,85.60
2024-05-09T19:46:32.906Z,87.10
2024-05-09T19:49:07.285Z,89.30
2024-05-09T19:51:35.542Z,89.40
2024-05-09T19:54:06.115Z,90.30
2024-05-09T19:56:44.633Z,90.70
2024-05-09T19:59:15.476Z,90.40
2024-05-09T20:01:43.275Z,90.80
2024-05-09T20:04:13.756Z,91.50
2024-05-09T20:06:42.524Z,91.90
2024-05-09T20:09:13.012Z,91.40
2024-05-09T20:11:43.907Z,91.20
2024-05-09T20:14:15.845Z,91.50
2024-05-09T20:16:45.125Z,91.90
2024-05-09T20:19:18.369Z,92.20
2024-05-09T20:21:46.157Z,92.50
2024-05-09T20:24:16.953Z,93.10
2024-05-09T20:26:47.573Z,93.40
2024-05-09T20:29:18.636Z,93.60
2024-05-09T20:31:46.371Z,93.80
2024-05-09T20:34:16.774Z,93.70
2024-05-09T20:36:44.403Z,93.90
2024-05-09T20:39:14.686Z,93.70
2024-05-09T20:41:46.657Z,93.80
2024-05-09T20:44:17.374Z,94.20
2024-05-09T20:46:45.547Z,95.30
2024-05-09T20:49:17.086Z,95.80
2024-05-09T20:51:45.244Z,96.60
2024-05-09T20:54:15.646Z,97.30
2024-05-09T20:56:50.994Z,97.90
2024-05-09T20:59:24.203Z,98.50
2024-05-09T21:01:57.251Z,99.40
2024-05-09T21:04:27.978Z,99.90
2024-05-09T21:06:55.921Z,99.90
2024-05-09T21:09:26.291Z,99.90
2024-05-09T21:11:54.293Z,99.90
2024-05-09T21:14:27.459Z,99.90
2024-05-09T21:16:55.379Z,99.90
2024-05-09T21:19:26.149Z,99.90
2024-05-09T21:21:54.039Z,99.90
2024-05-09T21:24:24.516Z,99.90
2024-05-09T21:26:52.719Z,99.90
2024-05-09T21:29:23.262Z,99.90
2024-05-09T21:31:53.808Z,99.90
2024-05-09T21:34:24.556Z,99.90
2024-05-09T21:36:52.372Z,99.90
2024-05-09T21:39:23.854Z,99.90
2024-05-09T21:41:51.900Z,99.90
2024-05-09T21:44:25.079Z,99.90
2024-05-09T21:46:55.476Z,99.90
2024-05-09T21:49:25.770Z,99.90
2024-05-09T21:51:55.011Z,99.90
2024-05-09T21:54:25.371Z,99.90
2024-05-09T21:56:55.249Z,99.90
2024-05-09T21:59:27.862Z,99.90
2024-05-09T22:01:58.932Z,99.90
2024-05-09T22:04:29.552Z,99.90
2024-05-09T22:06:57.350Z,99.90
2024-05-09T22:09:27.951Z,99.90
2024-05-09T22:11:57.569Z,99.90
2024-05-09T22:14:28.535Z,99.90
2024-05-09T22:16:58.863Z,99.90
2024-05-09T22:19:29.991Z,99.90
2024-05-09T22:21:57.755Z,99.90
2024-05-09T22:24:28.068Z,99.90
2024-05-09T22:26:55.718Z,99.90
2024-05-09T22:29:25.977Z,99.90
2024-05-09T22:31:53.798Z,99.90
2024-05-09T22:34:26.981Z,99.90
2024-05-09T22:36:54.777Z,99.90
2024-05-09T22:39:25.676Z,99.90
2024-05-09T22:41:54.097Z,99.90
2024-05-09T22:44:24.578Z,99.90
2024-05-09T22:46:58.436Z,99.90
2024-05-09T22:49:31.683Z,99.90
2024-05-09T22:51:59.676Z,99.90
2024-05-09T22:54:30.030Z,99.90
2024-05-09T22:56:58.032Z,99.90
2024-05-09T22:59:28.217Z,99.90
2024-05-09T23:01:55.898Z,99.90
2024-05-09T23:04:26.379Z,99.90
2024-05-09T23:06:56.686Z,99.90
2024-05-09T23:09:33.532Z,99.90
2024-05-09T23:12:01.523Z,99.90
2024-05-09T23:14:31.705Z,99.90
2024-05-09T23:16:59.525Z,99.90
2024-05-09T23:19:29.890Z,99.90
2024-05-09T23:22:00.826Z,99.90
2024-05-09T23:24:32.568Z,99.90
2024-05-09T23:27:00.089Z,99.90
2024-05-09T23:29:30.417Z,99.90
2024-05-09T23:31:58.208Z,99.90
2024-05-09T23:34:28.616Z,99.90
2024-05-09T23:36:56.496Z,99.90
2024-05-09T23:39:29.508Z,99.90
2024-05-09T23:41:57.269Z,99.90
2024-05-09T23:44:27.679Z,99.90
2024-05-09T23:46:55.322Z,99.90
2024-05-09T23:49:25.658Z,99.90
2024-05-09T23:51:53.662Z,99.90
2024-05-09T23:54:24.142Z,99.90
2024-05-09T23:56:54.595Z,99.90
2024-05-09T23:59:36.381Z,99.90
